createdAt,value
2024-04-22T00:00:47.879Z,1.92
2024-04-22T00:10:58.166Z,2.1
2024-04-22T00:21:06.482Z,1.97
2024-04-22T00:31:12.678Z,1.81
2024-04-22T00:41:21.459Z,1.53
2024-04-22T00:51:30.498Z,2.08
2024-04-22T01:01:35.737Z,2.61
2024-04-22T01:11:41.008Z,1.8
2024-04-22T01:21:46.281Z,2.05
2024-04-22T01:31:51.515Z,2.45
2024-04-22T01:41:56.793Z,2.26
2024-04-22T01:52:02.084Z,2.52
2024-04-22T02:02:07.388Z,1.98
2024-04-22T02:12:12.694Z,2.55
2024-04-22T02:22:17.970Z,2.17
2024-04-22T02:32:32.800Z,1.97
2024-04-22T02:42:27.947Z,1.84
2024-04-22T02:52:34.559Z,1.88
2024-04-22T03:02:39.749Z,1.63
2024-04-22T03:12:45.065Z,1.94
2024-04-22T03:22:50.327Z,1.87
2024-04-22T03:32:55.607Z,2.26
2024-04-22T03:43:00.850Z,2.01
2024-04-22T03:53:06.452Z,2.22
2024-04-22T04:03:12.054Z,2.76
2024-04-22T04:13:17.365Z,2.69
2024-04-22T04:23:22.599Z,2.37
2024-04-22T04:33:27.861Z,3.76
2024-04-22T04:43:33.245Z,3.77
2024-04-22T04:53:38.358Z,5.6
2024-04-22T05:03:46.268Z,3.84
2024-04-22T05:13:51.524Z,3.48
2024-04-22T05:23:56.774Z,3.52
2024-04-22T05:34:02.029Z,3.09
2024-04-22T05:44:07.342Z,3.13
2024-04-22T05:54:12.657Z,3.52
2024-04-22T06:04:17.993Z,4.04
2024-04-22T06:14:25.211Z,5.15
2024-04-22T06:24:30.598Z,4.7
2024-04-22T06:34:40.279Z,4.02
2024-04-22T06:44:45.631Z,4.69
2024-04-22T06:54:50.906Z,4
2024-04-22T07:04:55.877Z,4.02
2024-04-22T07:15:01.118Z,2.23
2024-04-22T07:25:05.318Z,2.39
2024-04-22T07:35:10.400Z,1.88
2024-04-22T07:45:15.767Z,2.97
2024-04-22T07:55:22.159Z,2.06
2024-04-22T08:05:27.363Z,2.38
2024-04-22T08:15:32.849Z,2.51
2024-04-22T08:25:38.221Z,3.07
2024-04-22T08:35:43.593Z,2.79
2024-04-22T08:45:49.309Z,3.12
2024-04-22T08:55:54.584Z,2.68
2024-04-22T09:05:59.949Z,4.28
2024-04-22T09:16:05.211Z,1.39
2024-04-22T09:26:10.805Z,2.13
2024-04-22T09:36:17.322Z,1.36
2024-04-22T09:46:22.877Z,1.36
2024-04-22T09:56:28.219Z,2.19
2024-04-22T10:06:33.452Z,1.59
2024-04-22T10:16:38.721Z,1.16
2024-04-22T10:36:50.065Z,1.34
2024-04-22T10:46:53.278Z,0.93
2024-04-22T10:56:58.489Z,0.93
2024-04-22T11:07:03.864Z,1.12
2024-04-22T11:17:11.795Z,1.07
2024-04-22T11:27:17.166Z,1.11
2024-04-22T11:37:22.468Z,1.25
2024-04-22T11:47:27.856Z,2.12
2024-04-22T11:57:34.692Z,2.15
2024-04-22T12:07:40.063Z,3.04
2024-04-22T12:17:45.352Z,3.25
2024-04-22T12:27:51.918Z,3.3
2024-04-22T12:37:58.319Z,2.76
2024-04-22T12:48:03.757Z,2.73
2024-04-22T12:58:09.034Z,2.78
2024-04-22T13:08:14.356Z,2.26
2024-04-22T13:18:20.334Z,2.17
2024-04-22T13:28:24.669Z,1.95
2024-04-22T13:38:32.670Z,2.02
2024-04-22T13:48:40.197Z,1.8
2024-04-22T13:58:42.996Z,1.66
2024-04-22T14:08:48.208Z,1.69
2024-04-22T14:18:53.502Z,1.77
2024-04-22T14:28:58.920Z,1.41
2024-04-22T14:39:04.159Z,1.79
2024-04-22T14:49:10.779Z,1.23
2024-04-22T14:59:15.621Z,1.27
2024-04-22T15:09:20.960Z,1.31
2024-04-22T15:19:26.296Z,1.52
2024-04-22T15:29:31.569Z,1.7
2024-04-22T15:39:36.879Z,1.9
2024-04-22T15:49:42.181Z,1.88
2024-04-22T15:59:51.245Z,1.9
2024-04-22T16:09:50.937Z,1.82
2024-04-22T16:19:57.448Z,1.55
2024-04-22T16:30:02.814Z,1.57
2024-04-22T16:40:08.067Z,1.52
2024-04-22T16:50:13.368Z,1.67
2024-04-22T17:00:20.686Z,1.61
2024-04-22T17:10:26.027Z,1.77
2024-04-22T17:20:31.327Z,1.34
2024-04-22T17:30:36.657Z,1.48
2024-04-22T17:40:41.981Z,1.67
2024-04-22T17:50:47.194Z,2.03
2024-04-22T18:00:52.628Z,2.46
2024-04-22T18:10:57.878Z,3.07
2024-04-22T18:21:03.125Z,1.85
2024-04-22T18:31:09.339Z,2.09
2024-04-22T18:41:13.262Z,2.89
2024-04-22T18:51:18.575Z,2.75
2024-04-22T19:01:23.988Z,2.13
2024-04-22T19:11:29.207Z,1.98
2024-04-22T19:21:34.540Z,2.21
2024-04-22T19:31:40.956Z,3.01
2024-04-22T19:51:58.253Z,3.73
2024-04-22T20:02:04.659Z,3.66
2024-04-22T20:12:13.101Z,3.37
2024-04-22T20:22:19.661Z,3.87
2024-04-22T20:32:28.682Z,4.41
2024-04-22T20:42:40.207Z,4.22
2024-04-22T20:52:36.955Z,4.79
2024-04-22T21:02:48.835Z,4.14
2024-04-22T21:12:46.877Z,5.89
2024-04-22T21:22:53.330Z,4.48
2024-04-22T21:33:11.294Z,3.25
2024-04-22T21:43:05.630Z,2.36
2024-04-22T21:53:10.958Z,2.08
2024-04-22T22:03:16.277Z,2.17
2024-04-22T22:13:23.806Z,1.41
2024-04-22T22:23:30.215Z,1.41
2024-04-22T22:33:35.500Z,1.26
2024-04-22T22:43:40.829Z,1.03
2024-04-22T22:53:46.128Z,1.2
2024-04-22T23:03:51.416Z,1.27
2024-04-22T23:13:56.672Z,1.31
2024-04-22T23:24:01.942Z,1.08
2024-04-22T23:34:07.235Z,1.16
2024-04-22T23:44:13.053Z,0.68
2024-04-22T23:54:18.331Z,0.65
